sensor_id;sensor_type;location;lat;lon;timestamp;pressure;altitude;pressure_sealevel;temperature;humidity
68594;BME280;55563;52.416;13.548;2022-08-03T00:01:35;101237.56;;;19.46;62.97
68594;BME280;55563;52.416;13.548;2022-08-03T00:03:35;101234.94;;;19.33;63.17
68594;BME280;55563;52.416;13.548;2022-08-03T00:05:36;101225.63;;;19.08;63.75
68594;BME280;55563;52.416;13.548;2022-08-03T00:07:37;101226.16;;;19.18;63.77
68594;BME280;55563;52.416;13.548;2022-08-03T00:09:37;101228.25;;;19.22;63.49
68594;BME280;55563;52.416;13.548;2022-08-03T00:11:38;101234.38;;;19.22;63.53
68594;BME280;55563;52.416;13.548;2022-08-03T00:13:39;101231.72;;;19.22;64.01
68594;BME280;55563;52.416;13.548;2022-08-03T00:15:40;101231.22;;;19.20;63.98
68594;BME280;55563;52.416;13.548;2022-08-03T00:17:41;101225.69;;;19.16;64.06
68594;BME280;55563;52.416;13.548;2022-08-03T00:19:41;101218.19;;;19.18;64.14
68594;BME280;55563;52.416;13.548;2022-08-03T00:21:42;101224.63;;;19.17;63.99
68594;BME280;55563;52.416;13.548;2022-08-03T00:23:43;101224.91;;;19.16;64.43
68594;BME280;55563;52.416;13.548;2022-08-03T00:25:43;101216.53;;;19.09;64.57
68594;BME280;55563;52.416;13.548;2022-08-03T00:27:44;101216.25;;;19.10;64.67
68594;BME280;55563;52.416;13.548;2022-08-03T00:29:44;101217.41;;;19.18;64.48
68594;BME280;55563;52.416;13.548;2022-08-03T00:31:45;101213.47;;;19.15;64.71
68594;BME280;55563;52.416;13.548;2022-08-03T00:33:46;101214.06;;;19.12;64.76
68594;BME280;55563;52.416;13.548;2022-08-03T00:35:47;101211.41;;;19.12;65.01
68594;BME280;55563;52.416;13.548;2022-08-03T00:37:47;101209.22;;;19.14;65.19
68594;BME280;55563;52.416;13.548;2022-08-03T00:39:48;101212.38;;;19.16;65.21
68594;BME280;55563;52.416;13.548;2022-08-03T00:41:49;101210.31;;;19.13;65.29
68594;BME280;55563;52.416;13.548;2022-08-03T00:43:49;101210.00;;;19.15;65.18
68594;BME280;55563;52.416;13.548;2022-08-03T00:45:50;101200.34;;;19.05;65.30
68594;BME280;55563;52.416;13.548;2022-08-03T00:47:51;101200.47;;;19.00;65.57
68594;BME280;55563;52.416;13.548;2022-08-03T00:49:52;101205.63;;;18.97;65.93
68594;BME280;55563;52.416;13.548;2022-08-03T00:51:52;101203.13;;;19.00;65.59
68594;BME280;55563;52.416;13.548;2022-08-03T00:53:53;101192.00;;;18.98;65.64
68594;BME280;55563;52.416;13.548;2022-08-03T00:55:54;101192.75;;;18.77;66.63
68594;BME280;55563;52.416;13.548;2022-08-03T00:57:55;101194.22;;;18.83;66.36
68594;BME280;55563;52.416;13.548;2022-08-03T00:59:56;101200.25;;;18.61;67.17
68594;BME280;55563;52.416;13.548;2022-08-03T01:01:56;101193.44;;;18.68;66.93
68594;BME280;55563;52.416;13.548;2022-08-03T01:03:57;101196.41;;;18.67;67.60
68594;BME280;55563;52.416;13.548;2022-08-03T01:06:19;101192.25;;;18.75;67.26
68594;BME280;55563;52.416;13.548;2022-08-03T01:08:35;101193.59;;;18.86;66.73
68594;BME280;55563;52.416;13.548;2022-08-03T01:10:48;101192.69;;;18.90;66.50
68594;BME280;55563;52.416;13.548;2022-08-03T01:13:03;101197.13;;;18.95;66.52
68594;BME280;55563;52.416;13.548;2022-08-03T01:15:22;101189.94;;;18.95;67.00
68594;BME280;55563;52.416;13.548;2022-08-03T01:17:29;101196.66;;;18.93;66.75
68594;BME280;55563;52.416;13.548;2022-08-03T01:20:07;101191.22;;;18.98;66.24
68594;BME280;55563;52.416;13.548;2022-08-03T01:22:22;101187.66;;;19.02;66.64
68594;BME280;55563;52.416;13.548;2022-08-03T01:24:49;101190.66;;;19.09;66.81
68594;BME280;55563;52.416;13.548;2022-08-03T01:27:13;101182.50;;;19.06;66.38
68594;BME280;55563;52.416;13.548;2022-08-03T01:30:09;101187.09;;;19.14;66.69
68594;BME280;55563;52.416;13.548;2022-08-03T01:32:00;101181.31;;;19.12;66.59
68594;BME280;55563;52.416;13.548;2022-08-03T01:34:05;101182.91;;;18.99;67.02
68594;BME280;55563;52.416;13.548;2022-08-03T01:36:12;101184.88;;;19.07;67.13
68594;BME280;55563;52.416;13.548;2022-08-03T01:38:19;101176.88;;;19.07;66.89
68594;BME280;55563;52.416;13.548;2022-08-03T01:40:24;101181.13;;;19.08;67.15
68594;BME280;55563;52.416;13.548;2022-08-03T01:42:26;101179.22;;;19.09;66.83
68594;BME280;55563;52.416;13.548;2022-08-03T01:44:29;101173.13;;;19.08;66.81
68594;BME280;55563;52.416;13.548;2022-08-03T01:46:33;101178.63;;;19.12;67.12
68594;BME280;55563;52.416;13.548;2022-08-03T01:48:38;101167.47;;;19.10;66.81
68594;BME280;55563;52.416;13.548;2022-08-03T01:50:48;101171.06;;;19.05;66.07
68594;BME280;55563;52.416;13.548;2022-08-03T01:52:50;101173.13;;;19.08;66.31
68594;BME280;55563;52.416;13.548;2022-08-03T01:54:54;101162.66;;;19.12;66.57
68594;BME280;55563;52.416;13.548;2022-08-03T01:56:57;101162.53;;;19.17;66.50
68594;BME280;55563;52.416;13.548;2022-08-03T01:59:00;101170.34;;;19.13;67.09
68594;BME280;55563;52.416;13.548;2022-08-03T02:01:03;101157.78;;;19.14;66.62
68594;BME280;55563;52.416;13.548;2022-08-03T02:03:06;101163.72;;;19.11;66.73
68594;BME280;55563;52.416;13.548;2022-08-03T02:05:08;101166.09;;;19.12;66.30
68594;BME280;55563;52.416;13.548;2022-08-03T02:07:10;101162.47;;;19.08;66.85
68594;BME280;55563;52.416;13.548;2022-08-03T02:09:13;101166.69;;;19.09;67.08
68594;BME280;55563;52.416;13.548;2022-08-03T02:11:15;101172.03;;;19.09;66.63
68594;BME280;55563;52.416;13.548;2022-08-03T02:13:18;101168.84;;;18.85;65.89
68594;BME280;55563;52.416;13.548;2022-08-03T02:15:20;101177.84;;;18.76;66.53
68594;BME280;55563;52.416;13.548;2022-08-03T02:17:24;101171.66;;;18.66;66.71
68594;BME280;55563;52.416;13.548;2022-08-03T02:19:26;101174.13;;;18.63;66.63
68594;BME280;55563;52.416;13.548;2022-08-03T02:21:28;101170.47;;;18.72;67.19
68594;BME280;55563;52.416;13.548;2022-08-03T02:23:31;101166.75;;;18.60;66.94
68594;BME280;55563;52.416;13.548;2022-08-03T02:25:32;101168.78;;;18.63;67.34
68594;BME280;55563;52.416;13.548;2022-08-03T02:27:35;101169.56;;;18.77;67.29
68594;BME280;55563;52.416;13.548;2022-08-03T02:29:38;101166.50;;;18.84;67.27
68594;BME280;55563;52.416;13.548;2022-08-03T02:31:41;101172.41;;;18.81;68.06
68594;BME280;55563;52.416;13.548;2022-08-03T02:33:48;101170.91;;;18.88;67.59
68594;BME280;55563;52.416;13.548;2022-08-03T02:35:50;101174.19;;;18.71;66.19
68594;BME280;55563;52.416;13.548;2022-08-03T02:37:57;101172.44;;;18.67;67.16
68594;BME280;55563;52.416;13.548;2022-08-03T02:40:02;101163.53;;;18.71;67.11
68594;BME280;55563;52.416;13.548;2022-08-03T02:42:05;101168.19;;;18.80;67.71
68594;BME280;55563;52.416;13.548;2022-08-03T02:44:08;101169.50;;;18.91;67.04
68594;BME280;55563;52.416;13.548;2022-08-03T02:46:12;101172.06;;;18.96;67.57
68594;BME280;55563;52.416;13.548;2022-08-03T02:48:19;101172.28;;;18.86;67.30
68594;BME280;55563;52.416;13.548;2022-08-03T02:50:23;101168.44;;;18.92;66.87
68594;BME280;55563;52.416;13.548;2022-08-03T02:52:27;101168.75;;;18.77;66.26
68594;BME280;55563;52.416;13.548;2022-08-03T02:54:28;101168.28;;;18.75;66.32
68594;BME280;55563;52.416;13.548;2022-08-03T02:56:30;101175.97;;;18.76;66.95
68594;BME280;55563;52.416;13.548;2022-08-03T02:58:32;101170.97;;;18.75;66.59
68594;BME280;55563;52.416;13.548;2022-08-03T03:00:33;101170.91;;;18.88;67.27
68594;BME280;55563;52.416;13.548;2022-08-03T03:02:35;101173.25;;;18.90;67.41
68594;BME280;55563;52.416;13.548;2022-08-03T03:04:36;101175.41;;;19.01;67.70
68594;BME280;55563;52.416;13.548;2022-08-03T03:06:39;101178.22;;;18.83;68.69
68594;BME280;55563;52.416;13.548;2022-08-03T03:08:40;101177.25;;;18.79;67.86
68594;BME280;55563;52.416;13.548;2022-08-03T03:10:41;101173.50;;;18.80;68.57
68594;BME280;55563;52.416;13.548;2022-08-03T03:12:44;101181.13;;;18.95;67.63
68594;BME280;55563;52.416;13.548;2022-08-03T03:14:46;101175.47;;;18.88;68.29
68594;BME280;55563;52.416;13.548;2022-08-03T03:16:46;101180.50;;;18.89;68.71
68594;BME280;55563;52.416;13.548;2022-08-03T03:18:48;101181.69;;;18.83;68.85
68594;BME280;55563;52.416;13.548;2022-08-03T03:20:50;101172.84;;;18.96;68.51
68594;BME280;55563;52.416;13.548;2022-08-03T03:22:52;101179.16;;;19.00;68.09
68594;BME280;55563;52.416;13.548;2022-08-03T03:24:54;101177.31;;;18.87;67.21
68594;BME280;55563;52.416;13.548;2022-08-03T03:26:56;101172.41;;;18.81;67.29
68594;BME280;55563;52.416;13.548;2022-08-03T03:28:57;101176.94;;;18.80;68.49
68594;BME280;55563;52.416;13.548;2022-08-03T03:30:58;101177.31;;;18.87;68.85
68594;BME280;55563;52.416;13.548;2022-08-03T03:33:00;101176.81;;;18.99;68.30
68594;BME280;55563;52.416;13.548;2022-08-03T03:35:03;101177.28;;;19.01;67.97
68594;BME280;55563;52.416;13.548;2022-08-03T03:37:04;101179.84;;;19.06;67.95
68594;BME280;55563;52.416;13.548;2022-08-03T03:39:05;101182.09;;;19.12;68.06
68594;BME280;55563;52.416;13.548;2022-08-03T03:41:06;101181.47;;;19.15;68.27
68594;BME280;55563;52.416;13.548;2022-08-03T03:43:08;101173.97;;;19.17;68.20
68594;BME280;55563;52.416;13.548;2022-08-03T03:45:09;101181.59;;;19.10;68.87
68594;BME280;55563;52.416;13.548;2022-08-03T03:47:11;101175.28;;;19.06;68.96
68594;BME280;55563;52.416;13.548;2022-08-03T03:49:12;101173.59;;;19.10;68.77
68594;BME280;55563;52.416;13.548;2022-08-03T03:51:24;101177.16;;;19.06;69.06
68594;BME280;55563;52.416;13.548;2022-08-03T03:53:25;101178.53;;;18.81;69.83
68594;BME280;55563;52.416;13.548;2022-08-03T03:55:25;101171.31;;;18.82;70.08
68594;BME280;55563;52.416;13.548;2022-08-03T03:57:26;101177.91;;;18.98;68.76
68594;BME280;55563;52.416;13.548;2022-08-03T03:59:27;101173.94;;;18.95;69.26
68594;BME280;55563;52.416;13.548;2022-08-03T04:01:28;101183.16;;;18.89;69.46
68594;BME280;55563;52.416;13.548;2022-08-03T04:03:28;101182.84;;;18.91;69.57
68594;BME280;55563;52.416;13.548;2022-08-03T04:05:29;101176.75;;;18.77;70.63
68594;BME280;55563;52.416;13.548;2022-08-03T04:08:00;101184.13;;;18.93;69.51
68594;BME280;55563;52.416;13.548;2022-08-03T04:10:24;101179.78;;;18.97;69.59
68594;BME280;55563;52.416;13.548;2022-08-03T04:12:48;101185.34;;;19.09;70.11
68594;BME280;55563;52.416;13.548;2022-08-03T04:14:52;101181.00;;;19.13;68.43
68594;BME280;55563;52.416;13.548;2022-08-03T04:16:58;101183.47;;;19.10;68.98
68594;BME280;55563;52.416;13.548;2022-08-03T04:19:04;101184.44;;;19.14;69.25
68594;BME280;55563;52.416;13.548;2022-08-03T04:21:09;101171.91;;;19.14;69.87
68594;BME280;55563;52.416;13.548;2022-08-03T04:23:12;101181.81;;;19.00;70.88
68594;BME280;55563;52.416;13.548;2022-08-03T04:25:15;101175.19;;;19.34;68.67
68594;BME280;55563;52.416;13.548;2022-08-03T04:27:21;101192.28;;;20.56;67.15
68594;BME280;55563;52.416;13.548;2022-08-03T04:29:25;101193.28;;;22.89;59.26
68594;BME280;55563;52.416;13.548;2022-08-03T04:31:26;101185.91;;;23.85;55.37
68594;BME280;55563;52.416;13.548;2022-08-03T04:33:31;101191.72;;;24.72;52.72
68594;BME280;55563;52.416;13.548;2022-08-03T04:35:33;101190.59;;;25.84;50.11
68594;BME280;55563;52.416;13.548;2022-08-03T04:37:41;101187.44;;;26.64;47.53
68594;BME280;55563;52.416;13.548;2022-08-03T04:39:43;101197.56;;;26.86;46.59
68594;BME280;55563;52.416;13.548;2022-08-03T04:41:48;101196.25;;;25.79;47.38
68594;BME280;55563;52.416;13.548;2022-08-03T04:43:50;101192.47;;;26.46;45.48
68594;BME280;55563;52.416;13.548;2022-08-03T04:45:53;101195.50;;;26.80;44.13
68594;BME280;55563;52.416;13.548;2022-08-03T04:47:56;101203.34;;;25.56;48.35
68594;BME280;55563;52.416;13.548;2022-08-03T04:49:56;101199.13;;;23.78;52.47
68594;BME280;55563;52.416;13.548;2022-08-03T04:51:57;101189.78;;;23.30;54.12
68594;BME280;55563;52.416;13.548;2022-08-03T04:53:58;101197.97;;;23.55;53.98
68594;BME280;55563;52.416;13.548;2022-08-03T04:56:06;101192.03;;;23.08;55.14
68594;BME280;55563;52.416;13.548;2022-08-03T04:58:07;101206.84;;;24.76;50.56
68594;BME280;55563;52.416;13.548;2022-08-03T05:00:07;101204.88;;;27.05;46.29
68594;BME280;55563;52.416;13.548;2022-08-03T05:02:08;101202.19;;;28.38;43.47
68594;BME280;55563;52.416;13.548;2022-08-03T05:04:09;101207.56;;;28.91;42.11
68594;BME280;55563;52.416;13.548;2022-08-03T05:06:09;101209.84;;;28.33;41.21
68594;BME280;55563;52.416;13.548;2022-08-03T05:08:10;101204.44;;;28.33;42.73
68594;BME280;55563;52.416;13.548;2022-08-03T05:10:12;101207.53;;;29.58;40.26
68594;BME280;55563;52.416;13.548;2022-08-03T05:12:12;101211.38;;;28.86;40.86
68594;BME280;55563;52.416;13.548;2022-08-03T05:14:13;101203.88;;;29.06;39.69
68594;BME280;55563;52.416;13.548;2022-08-03T05:16:14;101209.50;;;30.08;38.42
68594;BME280;55563;52.416;13.548;2022-08-03T05:18:14;101204.84;;;30.60;37.49
68594;BME280;55563;52.416;13.548;2022-08-03T05:20:15;101199.06;;;30.72;37.07
68594;BME280;55563;52.416;13.548;2022-08-03T05:22:16;101191.94;;;29.11;40.04
68594;BME280;55563;52.416;13.548;2022-08-03T05:24:16;101203.91;;;28.76;38.74
68594;BME280;55563;52.416;13.548;2022-08-03T05:26:17;101206.50;;;29.73;38.92
68594;BME280;55563;52.416;13.548;2022-08-03T05:28:17;101210.31;;;28.68;42.46
68594;BME280;55563;52.416;13.548;2022-08-03T05:30:18;101204.63;;;28.73;42.67
68594;BME280;55563;52.416;13.548;2022-08-03T05:32:19;101216.16;;;30.14;37.99
68594;BME280;55563;52.416;13.548;2022-08-03T05:34:19;101208.44;;;30.16;38.74
68594;BME280;55563;52.416;13.548;2022-08-03T05:36:20;101210.84;;;30.32;38.54
68594;BME280;55563;52.416;13.548;2022-08-03T05:38:21;101209.44;;;31.74;35.10
68594;BME280;55563;52.416;13.548;2022-08-03T05:40:21;101214.78;;;31.21;36.58
68594;BME280;55563;52.416;13.548;2022-08-03T05:42:22;101220.81;;;30.79;36.45
68594;BME280;55563;52.416;13.548;2022-08-03T05:44:22;101213.59;;;31.08;36.10
68594;BME280;55563;52.416;13.548;2022-08-03T05:46:24;101224.97;;;30.04;38.67
68594;BME280;55563;52.416;13.548;2022-08-03T05:48:25;101228.13;;;30.68;34.59
68594;BME280;55563;52.416;13.548;2022-08-03T05:50:26;101225.84;;;30.15;35.35
68594;BME280;55563;52.416;13.548;2022-08-03T05:52:26;101228.78;;;31.34;34.16
68594;BME280;55563;52.416;13.548;2022-08-03T05:54:27;101228.41;;;31.39;34.88
68594;BME280;55563;52.416;13.548;2022-08-03T05:56:28;101224.94;;;31.56;33.41
68594;BME280;55563;52.416;13.548;2022-08-03T05:58:28;101225.75;;;31.95;33.33
68594;BME280;55563;52.416;13.548;2022-08-03T06:00:30;101232.53;;;31.01;35.52
68594;BME280;55563;52.416;13.548;2022-08-03T06:02:31;101232.47;;;33.17;31.97
68594;BME280;55563;52.416;13.548;2022-08-03T06:04:31;101230.81;;;32.18;32.46
68594;BME280;55563;52.416;13.548;2022-08-03T06:06:32;101227.66;;;31.56;33.81
68594;BME280;55563;52.416;13.548;2022-08-03T06:08:33;101212.19;;;32.13;31.60
68594;BME280;55563;52.416;13.548;2022-08-03T06:10:34;101222.66;;;32.18;32.45
68594;BME280;55563;52.416;13.548;2022-08-03T06:12:35;101220.03;;;34.15;27.92
68594;BME280;55563;52.416;13.548;2022-08-03T06:14:35;101217.69;;;34.21;29.13
68594;BME280;55563;52.416;13.548;2022-08-03T06:16:36;101211.97;;;32.87;27.93
68594;BME280;55563;52.416;13.548;2022-08-03T06:18:37;101211.28;;;32.55;31.41
68594;BME280;55563;52.416;13.548;2022-08-03T06:20:38;101217.94;;;33.41;29.81
68594;BME280;55563;52.416;13.548;2022-08-03T06:22:38;101211.38;;;31.88;31.12
68594;BME280;55563;52.416;13.548;2022-08-03T06:24:39;101213.00;;;33.18;28.03
68594;BME280;55563;52.416;13.548;2022-08-03T06:26:40;101213.19;;;32.79;29.54
68594;BME280;55563;52.416;13.548;2022-08-03T06:28:43;101207.72;;;32.79;28.80
68594;BME280;55563;52.416;13.548;2022-08-03T06:30:44;101220.22;;;33.98;28.39
68594;BME280;55563;52.416;13.548;2022-08-03T06:32:46;101215.47;;;34.80;26.90
68594;BME280;55563;52.416;13.548;2022-08-03T06:34:46;101207.31;;;32.84;28.32
68594;BME280;55563;52.416;13.548;2022-08-03T06:36:47;101208.78;;;33.69;29.04
68594;BME280;55563;52.416;13.548;2022-08-03T06:38:50;101205.56;;;33.26;28.46
68594;BME280;55563;52.416;13.548;2022-08-03T06:40:50;101209.91;;;33.16;29.54
68594;BME280;55563;52.416;13.548;2022-08-03T06:42:51;101216.41;;;33.88;29.75
68594;BME280;55563;52.416;13.548;2022-08-03T06:44:52;101213.69;;;34.67;27.42
68594;BME280;55563;52.416;13.548;2022-08-03T06:46:52;101218.53;;;34.52;28.65
68594;BME280;55563;52.416;13.548;2022-08-03T06:48:53;101223.44;;;35.28;27.60
68594;BME280;55563;52.416;13.548;2022-08-03T06:50:55;101222.66;;;34.33;29.06
68594;BME280;55563;52.416;13.548;2022-08-03T06:52:56;101212.69;;;33.68;29.40
68594;BME280;55563;52.416;13.548;2022-08-03T06:54:57;101214.94;;;34.21;27.25
68594;BME280;55563;52.416;13.548;2022-08-03T06:56:58;101209.56;;;34.85;27.33
68594;BME280;55563;52.416;13.548;2022-08-03T06:58:58;101210.34;;;36.13;26.08
68594;BME280;55563;52.416;13.548;2022-08-03T07:00:59;101214.91;;;34.25;27.10
68594;BME280;55563;52.416;13.548;2022-08-03T07:03:00;101208.38;;;34.52;26.15
68594;BME280;55563;52.416;13.548;2022-08-03T07:05:00;101216.69;;;34.01;26.85
68594;BME280;55563;52.416;13.548;2022-08-03T07:07:02;101213.03;;;34.89;26.18
68594;BME280;55563;52.416;13.548;2022-08-03T07:09:03;101209.38;;;34.66;26.23
68594;BME280;55563;52.416;13.548;2022-08-03T07:11:03;101217.56;;;35.30;26.63
68594;BME280;55563;52.416;13.548;2022-08-03T07:13:04;101207.69;;;35.86;25.79
68594;BME280;55563;52.416;13.548;2022-08-03T07:15:06;101215.06;;;37.27;22.38
68594;BME280;55563;52.416;13.548;2022-08-03T07:17:07;101213.03;;;35.93;26.12
68594;BME280;55563;52.416;13.548;2022-08-03T07:19:08;101211.59;;;38.49;21.42
68594;BME280;55563;52.416;13.548;2022-08-03T07:21:08;101205.09;;;36.42;24.20
68594;BME280;55563;52.416;13.548;2022-08-03T07:23:10;101209.75;;;36.64;25.84
68594;BME280;55563;52.416;13.548;2022-08-03T07:25:11;101215.38;;;36.57;25.04
68594;BME280;55563;52.416;13.548;2022-08-03T07:27:11;101202.81;;;36.20;26.09
68594;BME280;55563;52.416;13.548;2022-08-03T07:29:12;101210.09;;;36.47;24.75
68594;BME280;55563;52.416;13.548;2022-08-03T07:31:13;101208.66;;;37.66;22.67
68594;BME280;55563;52.416;13.548;2022-08-03T07:33:14;101202.81;;;37.48;23.12
68594;BME280;55563;52.416;13.548;2022-08-03T07:35:14;101207.97;;;36.94;22.58
68594;BME280;55563;52.416;13.548;2022-08-03T07:37:15;101201.09;;;37.22;24.12
68594;BME280;55563;52.416;13.548;2022-08-03T07:39:16;101200.94;;;37.45;23.21
68594;BME280;55563;52.416;13.548;2022-08-03T07:41:16;101205.47;;;37.19;25.54
68594;BME280;55563;52.416;13.548;2022-08-03T07:43:17;101211.63;;;37.23;23.01
68594;BME280;55563;52.416;13.548;2022-08-03T07:45:17;101200.75;;;35.81;24.82
68594;BME280;55563;52.416;13.548;2022-08-03T07:47:19;101205.31;;;36.51;25.64
68594;BME280;55563;52.416;13.548;2022-08-03T07:49:20;101205.91;;;36.62;24.80
68594;BME280;55563;52.416;13.548;2022-08-03T07:51:21;101207.72;;;34.41;26.75
68594;BME280;55563;52.416;13.548;2022-08-03T07:53:22;101202.00;;;33.36;27.13
68594;BME280;55563;52.416;13.548;2022-08-03T07:55:24;101203.25;;;33.21;26.61
68594;BME280;55563;52.416;13.548;2022-08-03T07:57:25;101198.72;;;32.93;28.14
68594;BME280;55563;52.416;13.548;2022-08-03T07:59:25;101210.50;;;32.69;30.87
68594;BME280;55563;52.416;13.548;2022-08-03T08:01:26;101203.34;;;33.03;27.49
68594;BME280;55563;52.416;13.548;2022-08-03T08:03:27;101206.66;;;32.45;28.72
68594;BME280;55563;52.416;13.548;2022-08-03T08:05:27;101207.88;;;31.73;31.04
68594;BME280;55563;52.416;13.548;2022-08-03T08:07:28;101200.13;;;32.11;31.44
68594;BME280;55563;52.416;13.548;2022-08-03T08:09:29;101196.13;;;32.54;30.10
68594;BME280;55563;52.416;13.548;2022-08-03T08:11:30;101205.84;;;32.55;30.67
68594;BME280;55563;52.416;13.548;2022-08-03T08:13:30;101203.16;;;32.52;29.65
68594;BME280;55563;52.416;13.548;2022-08-03T08:15:31;101201.25;;;32.10;31.01
68594;BME280;55563;52.416;13.548;2022-08-03T08:17:49;101203.22;;;32.27;31.83
68594;BME280;55563;52.416;13.548;2022-08-03T08:19:51;101193.50;;;31.73;30.84
68594;BME280;55563;52.416;13.548;2022-08-03T08:21:51;101202.78;;;32.39;31.32
68594;BME280;55563;52.416;13.548;2022-08-03T08:23:52;101194.97;;;32.66;28.20
68594;BME280;55563;52.416;13.548;2022-08-03T08:25:54;101201.66;;;32.01;30.21
68594;BME280;55563;52.416;13.548;2022-08-03T08:27:56;101200.47;;;32.30;31.31
68594;BME280;55563;52.416;13.548;2022-08-03T08:29:56;101196.59;;;32.24;30.11
68594;BME280;55563;52.416;13.548;2022-08-03T08:31:57;101196.13;;;32.47;29.35
68594;BME280;55563;52.416;13.548;2022-08-03T08:33:57;101196.09;;;32.58;30.29
68594;BME280;55563;52.416;13.548;2022-08-03T08:35:58;101200.47;;;32.23;28.78
68594;BME280;55563;52.416;13.548;2022-08-03T08:37:59;101204.72;;;32.42;31.70
68594;BME280;55563;52.416;13.548;2022-08-03T08:40:00;101199.66;;;32.40;31.20
68594;BME280;55563;52.416;13.548;2022-08-03T08:42:01;101201.16;;;32.59;31.12
68594;BME280;55563;52.416;13.548;2022-08-03T08:44:02;101193.69;;;32.81;30.13
68594;BME280;55563;52.416;13.548;2022-08-03T08:46:04;101201.16;;;32.66;28.51
68594;BME280;55563;52.416;13.548;2022-08-03T08:48:09;101199.94;;;32.81;31.54
68594;BME280;55563;52.416;13.548;2022-08-03T08:50:10;101202.88;;;33.15;30.21
68594;BME280;55563;52.416;13.548;2022-08-03T08:52:12;101198.09;;;32.47;29.29
68594;BME280;55563;52.416;13.548;2022-08-03T08:54:14;101200.50;;;31.98;29.61
68594;BME280;55563;52.416;13.548;2022-08-03T08:56:18;101196.09;;;32.75;27.51
68594;BME280;55563;52.416;13.548;2022-08-03T08:58:20;101193.09;;;33.25;28.06
68594;BME280;55563;52.416;13.548;2022-08-03T09:00:22;101204.84;;;33.18;28.79
68594;BME280;55563;52.416;13.548;2022-08-03T09:02:23;101194.16;;;32.58;28.02
68594;BME280;55563;52.416;13.548;2022-08-03T09:04:24;101194.31;;;33.10;30.08
68594;BME280;55563;52.416;13.548;2022-08-03T09:06:25;101191.91;;;32.35;28.32
68594;BME280;55563;52.416;13.548;2022-08-03T09:08:25;101194.47;;;32.85;28.69
68594;BME280;55563;52.416;13.548;2022-08-03T09:10:26;101185.72;;;33.15;29.13
68594;BME280;55563;52.416;13.548;2022-08-03T09:12:27;101187.00;;;32.96;28.70
68594;BME280;55563;52.416;13.548;2022-08-03T09:14:28;101181.50;;;33.07;29.79
68594;BME280;55563;52.416;13.548;2022-08-03T09:16:29;101190.75;;;33.27;28.31
68594;BME280;55563;52.416;13.548;2022-08-03T09:18:30;101195.47;;;33.23;28.73
68594;BME280;55563;52.416;13.548;2022-08-03T09:20:32;101193.66;;;32.92;28.81
68594;BME280;55563;52.416;13.548;2022-08-03T09:22:33;101187.56;;;32.56;28.75
68594;BME280;55563;52.416;13.548;2022-08-03T09:24:35;101182.47;;;32.68;28.37
68594;BME280;55563;52.416;13.548;2022-08-03T09:26:36;101178.47;;;32.91;27.74
68594;BME280;55563;52.416;13.548;2022-08-03T09:28:37;101176.78;;;33.21;28.40
68594;BME280;55563;52.416;13.548;2022-08-03T09:30:40;101176.75;;;33.25;27.11
68594;BME280;55563;52.416;13.548;2022-08-03T09:32:42;101173.50;;;33.48;27.05
68594;BME280;55563;52.416;13.548;2022-08-03T09:34:46;101172.16;;;33.08;28.19
68594;BME280;55563;52.416;13.548;2022-08-03T09:36:48;101175.25;;;33.72;29.38
68594;BME280;55563;52.416;13.548;2022-08-03T09:39:06;101169.72;;;33.31;26.65
68594;BME280;55563;52.416;13.548;2022-08-03T09:41:17;101173.72;;;33.64;26.25
68594;BME280;55563;52.416;13.548;2022-08-03T09:43:18;101171.38;;;33.11;26.46
68594;BME280;55563;52.416;13.548;2022-08-03T09:45:27;101173.81;;;32.91;25.62
68594;BME280;55563;52.416;13.548;2022-08-03T09:47:31;101178.38;;;33.12;26.30
68594;BME280;55563;52.416;13.548;2022-08-03T09:49:32;101168.25;;;33.16;27.11
68594;BME280;55563;52.416;13.548;2022-08-03T09:51:33;101167.63;;;33.49;26.38
68594;BME280;55563;52.416;13.548;2022-08-03T09:53:43;101174.13;;;33.62;27.85
68594;BME280;55563;52.416;13.548;2022-08-03T09:55:58;101170.03;;;33.40;27.30
68594;BME280;55563;52.416;13.548;2022-08-03T09:58:06;101175.94;;;33.83;27.04
68594;BME280;55563;52.416;13.548;2022-08-03T10:00:12;101165.50;;;33.23;26.03
68594;BME280;55563;52.416;13.548;2022-08-03T10:02:23;101170.69;;;33.55;27.82
68594;BME280;55563;52.416;13.548;2022-08-03T10:04:24;101162.44;;;34.10;26.19
68594;BME280;55563;52.416;13.548;2022-08-03T10:06:25;101166.31;;;33.64;26.36
68594;BME280;55563;52.416;13.548;2022-08-03T10:08:26;101156.69;;;33.97;27.85
68594;BME280;55563;52.416;13.548;2022-08-03T10:10:41;101154.81;;;33.46;26.02
68594;BME280;55563;52.416;13.548;2022-08-03T10:12:42;101154.94;;;33.80;26.71
68594;BME280;55563;52.416;13.548;2022-08-03T10:14:45;101156.09;;;34.20;27.27
68594;BME280;55563;52.416;13.548;2022-08-03T10:16:47;101154.34;;;33.96;26.58
68594;BME280;55563;52.416;13.548;2022-08-03T10:18:47;101151.03;;;34.15;26.06
68594;BME280;55563;52.416;13.548;2022-08-03T10:20:51;101152.97;;;33.77;25.31
68594;BME280;55563;52.416;13.548;2022-08-03T10:22:53;101139.06;;;33.64;26.83
68594;BME280;55563;52.416;13.548;2022-08-03T10:24:58;101142.38;;;33.90;27.39
68594;BME280;55563;52.416;13.548;2022-08-03T10:27:05;101146.03;;;34.47;25.67
68594;BME280;55563;52.416;13.548;2022-08-03T10:29:11;101143.81;;;33.98;27.05
68594;BME280;55563;52.416;13.548;2022-08-03T10:31:15;101143.78;;;34.01;27.17
68594;BME280;55563;52.416;13.548;2022-08-03T10:33:20;101143.31;;;34.10;26.64
68594;BME280;55563;52.416;13.548;2022-08-03T10:35:22;101134.38;;;33.68;25.89